createdAt,value
2017-11-07T00:00:55.581Z,40.35
2017-11-07T00:02:02.106Z,40.55
2017-11-07T00:03:07.870Z,37.17
2017-11-07T00:04:13.625Z,40.45
2017-11-07T00:05:19.989Z,32.20
2017-11-07T00:06:26.514Z,35.50
2017-11-07T00:07:32.264Z,39.42
2017-11-07T00:08:38.064Z,38.67
2017-11-07T00:09:43.916Z,36.85
2017-11-07T00:10:49.700Z,35.92
2017-11-07T00:11:55.269Z,50.88
2017-11-07T00:13:00.819Z,33.85
2017-11-07T00:14:06.397Z,38.78
2017-11-07T00:15:12.200Z,39.03
2017-11-07T00:16:17.809Z,38.55
2017-11-07T00:17:24.133Z,35.15
2017-11-07T00:18:29.892Z,32.28
2017-11-07T00:19:35.720Z,36.03
2017-11-07T00:20:41.493Z,39.90
2017-11-07T00:21:48.047Z,34.00
2017-11-07T00:22:53.804Z,32.13
2017-11-07T00:23:59.556Z,38.10
2017-11-07T00:25:05.307Z,45.47
2017-11-07T00:26:11.067Z,37.85
2017-11-07T00:27:16.877Z,41.40
2017-11-07T00:28:22.657Z,34.72
2017-11-07T00:29:28.418Z,37.03
2017-11-07T00:30:34.207Z,34.08
2017-11-07T00:31:39.953Z,37.13
2017-11-07T00:32:45.741Z,29.65
2017-11-07T00:33:51.295Z,47.05
2017-11-07T00:34:57.621Z,41.72
2017-11-07T00:36:03.381Z,45.42
2017-11-07T00:37:09.140Z,31.70
2017-11-07T00:38:15.690Z,35.20
2017-11-07T00:39:22.208Z,39.15
2017-11-07T00:40:27.965Z,33.30
2017-11-07T00:41:33.713Z,32.45
2017-11-07T00:42:39.493Z,38.72
2017-11-07T00:43:46.028Z,43.35
2017-11-07T00:44:51.780Z,34.13
2017-11-07T00:45:58.313Z,38.20
2017-11-07T00:47:03.877Z,39.47
2017-11-07T00:48:10.468Z,41.67
2017-11-07T00:49:16.241Z,42.22
2017-11-07T00:50:21.998Z,48.63
2017-11-07T00:51:27.751Z,35.05
2017-11-07T00:52:33.300Z,50.85
2017-11-07T00:53:39.821Z,30.75
2017-11-07T00:54:45.600Z,43.72
2017-11-07T00:55:51.317Z,27.30
2017-11-07T00:56:57.073Z,36.72
2017-11-07T00:58:02.845Z,48.03
2017-11-07T00:59:09.005Z,51.03
2017-11-07T01:00:14.780Z,44.90
2017-11-07T01:01:20.534Z,38.22
2017-11-07T01:02:26.296Z,37.20
2017-11-07T01:03:32.819Z,33.47
2017-11-07T01:04:38.632Z,38.92
2017-11-07T01:05:44.425Z,39.58
2017-11-07T01:06:50.181Z,42.75
2017-11-07T01:07:56.705Z,33.92
2017-11-07T01:09:02.467Z,33.45
2017-11-07T01:10:08.223Z,34.72
2017-11-07T01:11:14.781Z,41.75
2017-11-07T01:12:21.305Z,36.03
2017-11-07T01:13:27.053Z,31.40
2017-11-07T01:14:32.798Z,32.17
2017-11-07T01:15:38.562Z,40.58
2017-11-07T01:16:44.127Z,31.55
2017-11-07T01:17:50.641Z,30.85
2017-11-07T01:18:56.416Z,33.33
2017-11-07T01:20:02.946Z,37.22
2017-11-07T01:21:08.695Z,32.92
2017-11-07T01:22:14.478Z,39.67
2017-11-07T01:23:20.232Z,34.05
2017-11-07T01:24:25.984Z,48.25
2017-11-07T01:25:31.533Z,40.85
2017-11-07T01:26:37.343Z,34.75
2017-11-07T01:27:43.117Z,36.10
2017-11-07T01:28:48.872Z,34.40
2017-11-07T01:29:54.278Z,32.13
2017-11-07T01:30:59.690Z,37.08
2017-11-07T01:32:05.440Z,30.08
2017-11-07T01:33:11.208Z,32.88
2017-11-07T01:34:16.751Z,28.40
2017-11-07T01:35:22.505Z,28.58
2017-11-07T01:36:28.264Z,31.25
2017-11-07T01:37:34.033Z,27.70
2017-11-07T01:38:39.816Z,24.05
2017-11-07T01:39:45.582Z,29.30
2017-11-07T01:40:51.078Z,26.85
2017-11-07T01:41:56.854Z,22.90
2017-11-07T01:43:02.289Z,24.80
2017-11-07T01:44:08.057Z,21.58
2017-11-07T01:45:14.077Z,23.40
2017-11-07T01:46:19.830Z,24.08
2017-11-07T01:47:25.584Z,33.85
2017-11-07T01:48:32.103Z,23.83
2017-11-07T01:49:37.892Z,23.42
2017-11-07T01:50:44.409Z,30.40
2017-11-07T01:51:50.163Z,29.00
2017-11-07T01:52:55.904Z,31.10
2017-11-07T01:54:01.652Z,27.40
2017-11-07T01:55:08.197Z,31.98
2017-11-07T01:56:13.604Z,32.65
2017-11-07T01:57:19.349Z,27.08
2017-11-07T01:58:24.918Z,26.00
2017-11-07T01:59:30.677Z,39.83
2017-11-07T02:00:37.758Z,35.22
2017-11-07T02:01:44.264Z,31.23
2017-11-07T02:02:50.017Z,30.58
2017-11-07T02:03:55.824Z,27.23
2017-11-07T02:05:01.585Z,25.62
2017-11-07T02:06:07.401Z,25.92
2017-11-07T02:07:13.161Z,26.02
2017-11-07T02:08:18.925Z,24.20
2017-11-07T02:09:24.678Z,25.05
2017-11-07T02:10:30.292Z,29.02
2017-11-07T02:11:36.080Z,24.70
2017-11-07T02:12:42.616Z,24.75
2017-11-07T02:13:48.363Z,22.55
2017-11-07T02:14:54.123Z,23.20
2017-11-07T02:16:00.665Z,38.85
2017-11-07T02:17:07.223Z,23.10
2017-11-07T02:18:12.984Z,21.90
2017-11-07T02:19:18.810Z,20.02
2017-11-07T02:20:24.566Z,25.55
2017-11-07T02:21:29.968Z,25.75
2017-11-07T02:22:35.067Z,20.80
2017-11-07T02:23:40.480Z,22.40
2017-11-07T02:24:46.235Z,28.40
2017-11-07T02:25:51.285Z,25.48
2017-11-07T02:26:56.692Z,26.10
2017-11-07T02:28:02.468Z,27.27
2017-11-07T02:29:07.529Z,21.95
2017-11-07T02:30:13.366Z,23.12
2017-11-07T02:31:18.774Z,29.95
2017-11-07T02:32:24.762Z,28.77
2017-11-07T02:33:31.336Z,25.23
2017-11-07T02:34:36.560Z,22.10
2017-11-07T02:35:43.076Z,27.77
2017-11-07T02:36:48.818Z,24.95
2017-11-07T02:37:53.880Z,24.08
2017-11-07T02:38:59.660Z,25.10
2017-11-07T02:40:04.493Z,27.08
2017-11-07T02:41:10.266Z,28.23
2017-11-07T02:42:16.464Z,27.87
2017-11-07T02:43:22.973Z,29.98
2017-11-07T02:44:28.769Z,30.48
2017-11-07T02:45:34.507Z,25.67
2017-11-07T02:46:41.021Z,25.75
2017-11-07T02:47:47.193Z,24.17
2017-11-07T02:48:52.956Z,25.37
2017-11-07T02:49:58.725Z,24.73
2017-11-07T02:51:04.493Z,25.60
2017-11-07T02:52:10.220Z,26.10
2017-11-07T02:53:15.982Z,22.77
2017-11-07T02:54:22.507Z,24.40
2017-11-07T02:55:28.284Z,26.35
2017-11-07T02:56:34.801Z,25.40
2017-11-07T02:57:40.557Z,31.90
2017-11-07T02:58:46.308Z,29.02
2017-11-07T02:59:51.714Z,23.33
2017-11-07T03:00:57.497Z,25.40
2017-11-07T03:02:03.268Z,33.90
2017-11-07T03:03:09.024Z,25.80
2017-11-07T03:04:14.769Z,29.10
2017-11-07T03:05:20.517Z,27.90
2017-11-07T03:06:26.291Z,25.50
2017-11-07T03:07:32.048Z,27.50
2017-11-07T03:08:38.561Z,27.30
2017-11-07T03:09:44.465Z,30.33
2017-11-07T03:10:51.057Z,26.90
2017-11-07T03:11:57.006Z,33.00
2017-11-07T03:13:02.845Z,24.92
2017-11-07T03:14:08.672Z,30.40
2017-11-07T03:15:15.180Z,27.35
2017-11-07T03:16:20.925Z,29.77
2017-11-07T03:17:26.716Z,24.80
2017-11-07T03:18:32.473Z,38.00
2017-11-07T03:19:38.225Z,30.45
2017-11-07T03:20:43.984Z,33.63
2017-11-07T03:21:49.727Z,31.87
2017-11-07T03:22:55.320Z,36.78
2017-11-07T03:24:01.073Z,27.40
2017-11-07T03:25:06.825Z,26.33
2017-11-07T03:26:12.568Z,29.42
2017-11-07T03:27:18.324Z,30.90
2017-11-07T03:28:24.099Z,28.95
2017-11-07T03:29:30.624Z,33.00
2017-11-07T03:30:36.369Z,24.30
2017-11-07T03:31:41.914Z,27.37
2017-11-07T03:32:47.682Z,29.77
2017-11-07T03:33:54.228Z,30.45
2017-11-07T03:34:59.976Z,30.92
2017-11-07T03:36:06.508Z,25.08
2017-11-07T03:37:12.257Z,29.60
2017-11-07T03:38:18.019Z,33.30
2017-11-07T03:39:23.793Z,28.80
2017-11-07T03:40:29.540Z,27.77
2017-11-07T03:41:35.275Z,25.55
2017-11-07T03:42:41.044Z,32.67
2017-11-07T03:43:46.788Z,25.70
2017-11-07T03:44:52.572Z,29.05
2017-11-07T03:45:58.320Z,28.60
2017-11-07T03:47:04.847Z,25.80
2017-11-07T03:48:10.600Z,29.45
2017-11-07T03:49:17.851Z,29.75
2017-11-07T03:50:23.641Z,36.13
2017-11-07T03:51:30.162Z,25.27
2017-11-07T03:52:35.916Z,24.17
2017-11-07T03:53:41.684Z,23.75
2017-11-07T03:54:47.430Z,27.58
2017-11-07T03:55:53.719Z,29.10
2017-11-07T03:56:59.480Z,22.25
2017-11-07T03:58:06.004Z,28.05
2017-11-07T03:59:12.239Z,23.08
2017-11-07T04:00:17.998Z,22.48
2017-11-07T04:01:23.777Z,25.42
2017-11-07T04:02:29.541Z,24.20
2017-11-07T04:03:35.294Z,27.40
2017-11-07T04:04:42.089Z,22.70
2017-11-07T04:05:47.834Z,26.42
2017-11-07T04:06:53.617Z,23.17
2017-11-07T04:08:00.669Z,28.70
2017-11-07T04:09:05.741Z,23.58
2017-11-07T04:10:12.522Z,24.15
2017-11-07T04:11:18.277Z,22.80
2017-11-07T04:12:24.064Z,18.87
2017-11-07T04:13:29.909Z,22.62
2017-11-07T04:14:35.661Z,22.90
2017-11-07T04:15:42.197Z,24.37
2017-11-07T04:16:47.970Z,22.60
2017-11-07T04:17:54.523Z,23.20
2017-11-07T04:19:00.285Z,22.60
2017-11-07T04:20:06.061Z,23.05
2017-11-07T04:21:11.821Z,24.33
2017-11-07T04:22:17.572Z,23.20
2017-11-07T04:23:23.353Z,24.02
2017-11-07T04:24:29.120Z,25.95
2017-11-07T04:25:34.883Z,29.90
2017-11-07T04:26:40.648Z,24.37
2017-11-07T04:27:46.658Z,31.08
2017-11-07T04:28:52.428Z,23.05
2017-11-07T04:29:58.188Z,21.45
2017-11-07T04:31:05.437Z,26.00
2017-11-07T04:32:11.205Z,24.20
2017-11-07T04:33:16.954Z,30.05
2017-11-07T04:34:23.508Z,21.95
2017-11-07T04:35:30.036Z,20.12
2017-11-07T04:36:35.792Z,21.80
2017-11-07T04:37:41.223Z,23.80
2017-11-07T04:38:47.020Z,21.70
2017-11-07T04:39:52.794Z,21.83
2017-11-07T04:40:58.545Z,21.75
2017-11-07T04:42:04.056Z,22.58
2017-11-07T04:43:09.884Z,27.85
2017-11-07T04:44:15.625Z,26.40
2017-11-07T04:45:21.657Z,26.35
2017-11-07T04:46:27.424Z,24.73
2017-11-07T04:47:33.185Z,19.75
2017-11-07T04:48:38.928Z,22.20
2017-11-07T04:49:44.685Z,20.73
2017-11-07T04:50:50.465Z,19.77
2017-11-07T04:51:56.218Z,24.45
2017-11-07T04:53:01.978Z,22.27
2017-11-07T04:54:07.731Z,24.27
2017-11-07T04:55:13.477Z,24.35
2017-11-07T04:56:19.252Z,23.80
2017-11-07T04:57:25.777Z,19.60
2017-11-07T04:58:31.527Z,23.80
2017-11-07T04:59:37.317Z,21.08
2017-11-07T05:00:43.854Z,25.70
2017-11-07T05:01:50.397Z,21.77
2017-11-07T05:02:56.260Z,24.48
2017-11-07T05:04:02.773Z,23.10
2017-11-07T05:05:08.530Z,22.30
2017-11-07T05:06:14.460Z,22.50
2017-11-07T05:07:20.265Z,20.62
2017-11-07T05:08:26.772Z,20.83
2017-11-07T05:09:32.541Z,20.45
2017-11-07T05:10:38.308Z,23.40
2017-11-07T05:11:44.062Z,17.98
2017-11-07T05:12:49.848Z,23.55
2017-11-07T05:13:55.621Z,20.67
2017-11-07T05:15:02.147Z,22.00
2017-11-07T05:16:07.717Z,19.98
2017-11-07T05:17:14.232Z,24.42
2017-11-07T05:18:20.020Z,19.98
2017-11-07T05:19:26.764Z,26.12
2017-11-07T05:20:32.512Z,24.65
2017-11-07T05:21:38.300Z,21.83
2017-11-07T05:22:44.073Z,22.37
2017-11-07T05:23:49.849Z,21.30
2017-11-07T05:24:56.364Z,21.67
2017-11-07T05:26:02.109Z,20.83
2017-11-07T05:27:07.865Z,19.85
2017-11-07T05:28:13.621Z,19.67
2017-11-07T05:29:19.201Z,23.45
2017-11-07T05:30:24.953Z,31.00
2017-11-07T05:31:30.982Z,19.05
2017-11-07T05:32:36.742Z,19.87
2017-11-07T05:33:42.505Z,21.87
2017-11-07T05:34:48.288Z,20.15
2017-11-07T05:35:54.900Z,19.37
2017-11-07T05:37:00.657Z,23.50
2017-11-07T05:38:06.404Z,22.15
2017-11-07T05:39:12.232Z,22.75
2017-11-07T05:40:18.004Z,24.10
2017-11-07T05:41:23.789Z,22.85
2017-11-07T05:42:29.558Z,24.58
2017-11-07T05:43:35.352Z,27.62
2017-11-07T05:44:41.861Z,22.77
2017-11-07T05:45:47.295Z,28.75
2017-11-07T05:46:52.696Z,21.05
2017-11-07T05:47:58.108Z,22.35
2017-11-07T05:49:04.690Z,20.60
2017-11-07T05:50:10.096Z,22.10
2017-11-07T05:51:15.949Z,26.62
2017-11-07T05:52:22.424Z,21.83
2017-11-07T05:53:28.323Z,22.60
2017-11-07T05:54:34.084Z,22.25
2017-11-07T05:55:40.606Z,23.77
2017-11-07T05:56:46.397Z,22.48
2017-11-07T05:57:52.571Z,25.65
2017-11-07T05:58:58.341Z,24.92
2017-11-07T06:00:03.674Z,25.00
2017-11-07T06:01:09.697Z,30.35
2017-11-07T06:02:15.481Z,23.92
2017-11-07T06:03:21.270Z,21.50
2017-11-07T06:04:28.796Z,21.98
2017-11-07T06:05:34.541Z,24.05
2017-11-07T06:06:40.305Z,25.33
2017-11-07T06:07:46.854Z,30.88
2017-11-07T06:08:52.598Z,26.52
2017-11-07T06:09:59.124Z,20.62
2017-11-07T06:11:04.881Z,22.05
2017-11-07T06:12:10.632Z,25.40
2017-11-07T06:13:17.191Z,23.60
2017-11-07T06:14:22.941Z,23.98
2017-11-07T06:15:29.256Z,23.10
2017-11-07T06:16:35.768Z,22.55
2017-11-07T06:17:42.297Z,27.62
2017-11-07T06:18:48.061Z,24.15
2017-11-07T06:19:54.582Z,31.20
2017-11-07T06:21:00.154Z,24.23
2017-11-07T06:22:05.918Z,23.65
2017-11-07T06:23:12.432Z,24.10
2017-11-07T06:24:18.038Z,21.05
2017-11-07T06:25:24.078Z,24.50
2017-11-07T06:26:29.821Z,23.08
2017-11-07T06:27:35.584Z,24.42
2017-11-07T06:28:41.138Z,24.52
2017-11-07T06:29:46.939Z,24.77
2017-11-07T06:30:52.553Z,24.20
2017-11-07T06:31:59.069Z,24.17
2017-11-07T06:33:04.270Z,26.75
2017-11-07T06:34:10.030Z,21.33
2017-11-07T06:35:15.816Z,24.27
2017-11-07T06:36:22.152Z,24.42
2017-11-07T06:37:27.900Z,24.20
2017-11-07T06:38:34.432Z,26.60
2017-11-07T06:39:40.187Z,22.37
2017-11-07T06:40:45.968Z,23.95
2017-11-07T06:41:52.496Z,22.52
2017-11-07T06:42:58.262Z,27.65
2017-11-07T06:44:04.443Z,20.27
2017-11-07T06:45:09.847Z,21.45
2017-11-07T06:46:15.620Z,24.73
2017-11-07T06:47:21.373Z,25.48
2017-11-07T06:48:27.401Z,23.52
2017-11-07T06:49:33.155Z,21.85
2017-11-07T06:50:39.029Z,22.87
2017-11-07T06:51:44.805Z,25.85
2017-11-07T06:52:51.350Z,24.08
2017-11-07T06:53:57.098Z,26.12
2017-11-07T06:55:02.859Z,22.80
2017-11-07T06:56:09.380Z,23.77
2017-11-07T06:57:15.262Z,20.73
2017-11-07T06:58:21.891Z,25.60
2017-11-07T06:59:27.684Z,22.42
2017-11-07T07:00:33.936Z,25.52
2017-11-07T07:01:39.760Z,27.98
2017-11-07T07:02:46.460Z,22.67
2017-11-07T07:03:53.356Z,20.52
2017-11-07T07:04:59.256Z,24.67
2017-11-07T07:06:05.013Z,25.10
2017-11-07T07:07:10.775Z,23.00
2017-11-07T07:08:16.628Z,23.33
2017-11-07T07:09:22.793Z,21.17
2017-11-07T07:10:28.651Z,24.15
2017-11-07T07:11:35.564Z,24.63
2017-11-07T07:12:41.593Z,25.62
2017-11-07T07:13:47.393Z,22.00
2017-11-07T07:14:53.145Z,27.80
2017-11-07T07:15:59.669Z,21.62
2017-11-07T07:17:05.437Z,21.05
2017-11-07T07:18:12.703Z,24.77
2017-11-07T07:19:18.802Z,23.48
2017-11-07T07:20:24.574Z,24.10
2017-11-07T07:21:30.325Z,24.42
2017-11-07T07:22:36.266Z,23.80
2017-11-07T07:23:42.022Z,22.17
2017-11-07T07:24:47.855Z,24.67
2017-11-07T07:25:53.602Z,27.45
2017-11-07T07:26:59.149Z,21.00
2017-11-07T07:28:04.920Z,19.00
2017-11-07T07:29:11.445Z,23.35
2017-11-07T07:30:17.214Z,27.80
2017-11-07T07:31:23.740Z,22.13
2017-11-07T07:32:29.500Z,23.65
2017-11-07T07:33:35.481Z,25.05
2017-11-07T07:34:41.240Z,18.90
2017-11-07T07:35:47.050Z,23.48
2017-11-07T07:36:53.223Z,20.40
2017-11-07T07:37:58.970Z,22.60
2017-11-07T07:39:04.297Z,20.12
2017-11-07T07:40:10.143Z,20.58
2017-11-07T07:41:15.924Z,19.77
2017-11-07T07:42:22.593Z,24.02
2017-11-07T07:43:28.695Z,21.75
2017-11-07T07:44:34.452Z,22.90
2017-11-07T07:45:40.214Z,21.05
2017-11-07T07:46:45.995Z,19.42
2017-11-07T07:47:52.528Z,21.35
2017-11-07T07:48:58.318Z,18.60
2017-11-07T07:50:03.813Z,24.77
2017-11-07T07:51:09.597Z,20.62
2017-11-07T07:52:15.442Z,21.80
2017-11-07T07:53:21.255Z,23.12
2017-11-07T07:54:27.764Z,23.75
2017-11-07T07:55:33.517Z,23.10
2017-11-07T07:56:39.299Z,20.48
2017-11-07T07:57:45.853Z,24.73
2017-11-07T07:58:51.645Z,25.70
2017-11-07T07:59:57.406Z,23.62
2017-11-07T08:01:03.164Z,23.25
2017-11-07T08:02:08.920Z,22.08
2017-11-07T08:03:15.486Z,21.65
2017-11-07T08:04:22.010Z,23.75
2017-11-07T08:05:27.088Z,23.27
2017-11-07T08:06:33.220Z,24.77
2017-11-07T08:07:40.496Z,25.40
2017-11-07T08:08:46.101Z,24.98
2017-11-07T08:09:51.857Z,21.87
2017-11-07T08:10:57.362Z,24.60
2017-11-07T08:12:02.768Z,21.85
2017-11-07T08:13:08.571Z,21.67
2017-11-07T08:14:15.759Z,22.55
2017-11-07T08:15:22.120Z,23.70
2017-11-07T08:16:27.933Z,24.25
2017-11-07T08:17:33.727Z,21.52
2017-11-07T08:18:40.529Z,27.33
2017-11-07T08:19:46.389Z,22.25
2017-11-07T08:20:52.150Z,28.35
2017-11-07T08:21:58.668Z,21.15
2017-11-07T08:23:04.440Z,25.60
2017-11-07T08:24:10.202Z,23.58
2017-11-07T08:25:16.995Z,22.27
2017-11-07T08:26:23.247Z,24.55
2017-11-07T08:27:29.475Z,28.30
2017-11-07T08:28:36.365Z,23.75
2017-11-07T08:29:42.393Z,22.90
2017-11-07T08:30:49.042Z,24.52
2017-11-07T08:31:55.738Z,22.77
2017-11-07T08:33:01.736Z,28.65
2017-11-07T08:34:07.532Z,24.35
2017-11-07T08:35:13.585Z,26.25
2017-11-07T08:36:19.591Z,20.23
2017-11-07T08:37:26.286Z,22.80
2017-11-07T08:38:32.336Z,20.12
2017-11-07T08:39:38.188Z,20.67
2017-11-07T08:40:43.946Z,20.85
2017-11-07T08:41:49.726Z,18.83
2017-11-07T08:42:55.712Z,19.05
2017-11-07T08:44:01.553Z,20.85
2017-11-07T08:45:07.462Z,21.95
2017-11-07T08:46:14.084Z,21.42
2017-11-07T08:47:20.010Z,18.58
2017-11-07T08:48:25.650Z,20.77
2017-11-07T08:49:31.426Z,22.45
2017-11-07T08:50:37.370Z,17.23
2017-11-07T08:51:43.220Z,21.10
2017-11-07T08:52:49.325Z,21.00
2017-11-07T08:53:55.361Z,19.85
2017-11-07T08:55:02.120Z,18.35
2017-11-07T08:56:08.089Z,20.55
2017-11-07T08:57:13.957Z,20.92
2017-11-07T08:58:20.078Z,23.38
2017-11-07T08:59:26.332Z,20.12
2017-11-07T09:00:32.312Z,25.50
2017-11-07T09:01:38.633Z,20.23
2017-11-07T09:02:44.478Z,20.33
2017-11-07T09:03:50.302Z,23.40
2017-11-07T09:04:56.860Z,24.95
2017-11-07T09:06:03.495Z,29.73
2017-11-07T09:07:09.456Z,30.40
2017-11-07T09:08:16.077Z,23.25
2017-11-07T09:09:21.634Z,22.13
2017-11-07T09:10:27.676Z,26.62
2017-11-07T09:11:33.621Z,22.85
2017-11-07T09:12:41.254Z,26.58
2017-11-07T09:13:47.056Z,23.45
2017-11-07T09:14:53.032Z,28.95
2017-11-07T09:15:59.178Z,23.45
2017-11-07T09:17:05.868Z,23.38
2017-11-07T09:18:11.781Z,25.55
2017-11-07T09:19:19.280Z,24.85
2017-11-07T09:20:26.378Z,28.67
2017-11-07T09:21:32.412Z,26.67
2017-11-07T09:22:38.238Z,26.90
2017-11-07T09:23:44.781Z,25.75
2017-11-07T09:24:51.098Z,24.35
2017-11-07T09:25:56.873Z,27.77
2017-11-07T09:27:02.723Z,25.67
2017-11-07T09:28:08.597Z,27.75
2017-11-07T09:29:14.608Z,22.27
2017-11-07T09:30:20.361Z,25.75
2017-11-07T09:31:26.545Z,27.23
2017-11-07T09:32:32.297Z,27.15
2017-11-07T09:33:38.325Z,27.83
2017-11-07T09:34:44.895Z,25.90
2017-11-07T09:35:50.661Z,30.35
2017-11-07T09:36:56.482Z,26.05
2017-11-07T09:38:02.424Z,27.05
2017-11-07T09:39:08.272Z,27.40
2017-11-07T09:40:14.180Z,27.02
2017-11-07T09:41:20.040Z,25.42
2017-11-07T09:42:26.686Z,30.52
2017-11-07T09:43:33.493Z,24.33
2017-11-07T09:44:40.318Z,25.40
2017-11-07T09:45:46.718Z,26.27
2017-11-07T09:46:52.540Z,30.02
2017-11-07T09:47:59.142Z,25.20
2017-11-07T09:49:05.008Z,25.05
2017-11-07T09:50:10.903Z,26.92
2017-11-07T09:51:16.814Z,24.02
2017-11-07T09:52:23.641Z,24.85
2017-11-07T09:53:29.420Z,25.35
2017-11-07T09:54:35.942Z,28.73
2017-11-07T09:55:41.759Z,29.08
2017-11-07T09:56:47.502Z,24.60
2017-11-07T09:57:53.345Z,26.65
2017-11-07T09:58:59.129Z,25.17
2017-11-07T10:00:05.034Z,29.25
2017-11-07T10:01:10.796Z,22.95
2017-11-07T10:02:16.816Z,23.83
2017-11-07T10:03:23.138Z,21.83
2017-11-07T10:04:29.273Z,24.33
2017-11-07T10:05:36.284Z,22.35
2017-11-07T10:06:42.101Z,21.02
2017-11-07T10:07:47.878Z,22.83
2017-11-07T10:08:53.661Z,26.45
2017-11-07T10:09:59.280Z,23.75
2017-11-07T10:11:05.134Z,21.30
2017-11-07T10:12:10.897Z,22.75
2017-11-07T10:13:16.669Z,22.42
2017-11-07T10:14:23.372Z,21.62
2017-11-07T10:15:29.193Z,21.37
2017-11-07T10:16:34.762Z,23.20
2017-11-07T10:17:39.829Z,21.02
2017-11-07T10:18:45.638Z,22.90
2017-11-07T10:19:51.462Z,20.42
2017-11-07T10:20:57.514Z,22.77
2017-11-07T10:22:03.129Z,19.50
2017-11-07T10:23:09.695Z,21.20
2017-11-07T10:24:16.434Z,19.65
2017-11-07T10:25:22.333Z,22.90
2017-11-07T10:26:28.530Z,22.33
2017-11-07T10:27:34.419Z,20.45
2017-11-07T10:28:40.294Z,24.15
2017-11-07T10:29:45.723Z,17.65
2017-11-07T10:30:51.502Z,22.17
2017-11-07T10:31:58.200Z,21.58
2017-11-07T10:33:03.981Z,22.05
2017-11-07T10:34:09.728Z,21.10
2017-11-07T10:35:15.332Z,24.90
2017-11-07T10:36:20.950Z,22.67
2017-11-07T10:37:26.990Z,20.40
2017-11-07T10:38:33.177Z,22.08
2017-11-07T10:39:38.993Z,24.67
2017-11-07T10:40:44.740Z,19.30
2017-11-07T10:41:50.516Z,24.52
2017-11-07T10:42:56.371Z,21.42
2017-11-07T10:44:02.141Z,19.70
2017-11-07T10:45:08.704Z,21.40
2017-11-07T10:46:15.269Z,23.70
2017-11-07T10:47:21.802Z,20.55
2017-11-07T10:48:27.585Z,20.52
2017-11-07T10:49:33.167Z,15.95
2017-11-07T10:50:38.982Z,22.15
2017-11-07T10:51:44.805Z,23.45
2017-11-07T10:52:50.585Z,22.13
2017-11-07T10:53:56.477Z,21.87
2017-11-07T10:55:01.959Z,22.60
2017-11-07T10:56:07.281Z,16.98
2017-11-07T10:57:12.393Z,20.35
2017-11-07T10:58:17.985Z,23.93
2017-11-07T10:59:23.954Z,22.33
2017-11-07T11:00:29.534Z,20.45
2017-11-07T11:01:35.422Z,23.85
2017-11-07T11:02:41.525Z,21.60
2017-11-07T11:03:47.330Z,21.98
2017-11-07T11:04:52.760Z,22.10
2017-11-07T11:05:59.835Z,19.08
2017-11-07T11:07:07.227Z,20.23
2017-11-07T11:08:13.772Z,23.98
2017-11-07T11:09:19.537Z,22.92
2017-11-07T11:10:25.918Z,21.55
2017-11-07T11:11:31.756Z,18.10
2017-11-07T11:12:37.549Z,19.98
2017-11-07T11:13:43.227Z,17.50
2017-11-07T11:14:49.765Z,19.05
2017-11-07T11:15:55.720Z,21.00
2017-11-07T11:17:01.513Z,20.60
2017-11-07T11:18:07.306Z,20.95
2017-11-07T11:19:13.882Z,21.35
2017-11-07T11:20:19.926Z,19.52
2017-11-07T11:21:26.537Z,21.95
2017-11-07T11:22:32.293Z,19.60
2017-11-07T11:23:38.089Z,20.02
2017-11-07T11:24:43.910Z,20.48
2017-11-07T11:25:50.473Z,18.25
2017-11-07T11:26:57.062Z,23.23
2017-11-07T11:28:02.872Z,21.52
2017-11-07T11:29:09.768Z,22.58
2017-11-07T11:30:15.561Z,25.02
2017-11-07T11:31:21.555Z,18.80
2017-11-07T11:32:27.240Z,25.05
2017-11-07T11:33:34.101Z,20.45
2017-11-07T11:34:39.900Z,17.87
2017-11-07T11:35:45.670Z,24.90
2017-11-07T11:36:51.429Z,20.98
2017-11-07T11:37:57.224Z,17.62
2017-11-07T11:39:02.984Z,20.30
2017-11-07T11:40:08.752Z,19.48
2017-11-07T11:41:14.508Z,20.92
2017-11-07T11:42:20.321Z,23.35
2017-11-07T11:43:26.099Z,18.52
2017-11-07T11:44:31.863Z,22.67
2017-11-07T11:45:37.922Z,22.75
2017-11-07T11:46:43.741Z,19.67
2017-11-07T11:47:49.600Z,24.05
2017-11-07T11:48:55.660Z,26.83
2017-11-07T11:50:01.594Z,24.52
2017-11-07T11:51:08.272Z,26.27
2017-11-07T11:52:14.124Z,21.60
2017-11-07T11:53:19.912Z,24.15
2017-11-07T11:54:25.453Z,22.70
2017-11-07T11:55:31.293Z,22.48
2017-11-07T11:56:37.069Z,24.85
2017-11-07T11:57:43.782Z,27.87
2017-11-07T11:58:49.380Z,21.95
2017-11-07T11:59:55.224Z,25.10
2017-11-07T12:01:00.650Z,21.98
2017-11-07T12:02:06.582Z,22.45
2017-11-07T12:03:12.777Z,27.00
2017-11-07T12:04:18.594Z,22.25
2017-11-07T12:05:24.373Z,29.12
2017-11-07T12:06:30.181Z,23.67
2017-11-07T12:07:35.944Z,22.50
2017-11-07T12:08:41.848Z,22.90
2017-11-07T12:09:48.650Z,25.90
2017-11-07T12:10:54.794Z,29.58
2017-11-07T12:12:01.142Z,28.87
2017-11-07T12:13:07.089Z,26.37
2017-11-07T12:14:13.143Z,24.65
2017-11-07T12:15:19.654Z,24.27
2017-11-07T12:16:26.425Z,21.95
2017-11-07T12:17:33.295Z,25.48
2017-11-07T12:18:39.218Z,25.00
2017-11-07T12:19:45.000Z,23.98
2017-11-07T12:20:51.525Z,28.67
2017-11-07T12:21:57.419Z,29.48
2017-11-07T12:23:03.177Z,24.00
2017-11-07T12:24:08.934Z,26.05
2017-11-07T12:25:14.693Z,25.58
2017-11-07T12:26:20.297Z,25.17
2017-11-07T12:27:26.097Z,26.80
2017-11-07T12:28:32.858Z,26.87
2017-11-07T12:29:38.795Z,28.40
2017-11-07T12:30:44.782Z,25.48
2017-11-07T12:31:50.727Z,25.27
2017-11-07T12:32:56.728Z,24.17
2017-11-07T12:34:02.801Z,27.00
2017-11-07T12:35:09.490Z,24.50
2017-11-07T12:36:14.919Z,22.98
2017-11-07T12:37:20.741Z,26.05
2017-11-07T12:38:26.724Z,28.80
2017-11-07T12:39:32.962Z,27.10
2017-11-07T12:40:38.914Z,32.50
2017-11-07T12:41:45.682Z,28.65
2017-11-07T12:42:51.624Z,27.50
2017-11-07T12:43:57.393Z,27.85
2017-11-07T12:45:03.378Z,27.48
2017-11-07T12:46:09.324Z,25.10
2017-11-07T12:47:16.139Z,27.23
2017-11-07T12:48:21.966Z,31.12
2017-11-07T12:49:27.921Z,30.65
2017-11-07T12:50:50.357Z,32.28
2017-11-07T12:52:02.700Z,26.83
2017-11-07T12:53:08.817Z,29.92
2017-11-07T12:54:14.317Z,28.55
2017-11-07T12:55:20.901Z,30.98
2017-11-07T12:56:26.698Z,28.73
2017-11-07T12:57:32.687Z,30.35
2017-11-07T12:58:38.476Z,30.15
2017-11-07T12:59:44.455Z,34.72
2017-11-07T13:00:50.637Z,37.25
2017-11-07T13:01:56.663Z,28.90
2017-11-07T13:03:03.561Z,33.85
2017-11-07T13:04:09.542Z,32.17
2017-11-07T13:05:16.407Z,29.90
2017-11-07T13:06:22.350Z,34.13
2017-11-07T13:07:28.180Z,27.62
2017-11-07T13:08:34.107Z,28.70
2017-11-07T13:09:40.120Z,29.80
2017-11-07T13:10:46.807Z,34.97
2017-11-07T13:11:52.961Z,34.97
2017-11-07T13:12:59.013Z,31.62
2017-11-07T13:14:05.057Z,31.10
2017-11-07T13:15:11.822Z,34.05
2017-11-07T13:16:17.820Z,32.35
2017-11-07T13:17:24.738Z,30.52
2017-11-07T13:18:30.790Z,34.33
2017-11-07T13:19:36.937Z,32.92
2017-11-07T13:20:42.530Z,31.27
2017-11-07T13:21:48.435Z,40.78
2017-11-07T13:22:54.472Z,33.17
2017-11-07T13:24:00.622Z,31.08
2017-11-07T13:25:06.745Z,28.98
2017-11-07T13:26:13.655Z,29.73
2017-11-07T13:27:19.644Z,30.52
2017-11-07T13:28:26.655Z,29.25
2017-11-07T13:29:32.472Z,31.37
2017-11-07T13:30:38.249Z,31.55
2017-11-07T13:31:44.009Z,37.90
2017-11-07T13:32:49.782Z,35.95
2017-11-07T13:33:55.567Z,33.38
2017-11-07T13:35:01.802Z,34.20
2017-11-07T13:36:08.466Z,34.00
2017-11-07T13:37:15.265Z,31.23
2017-11-07T13:38:21.394Z,35.70
2017-11-07T13:40:53.878Z,31.30
2017-11-07T13:42:00.746Z,29.65
2017-11-07T13:43:06.646Z,34.67
2017-11-07T13:44:13.454Z,33.80
2017-11-07T13:45:19.601Z,30.73
2017-11-07T13:46:25.755Z,32.35
2017-11-07T13:47:31.787Z,33.60
2017-11-07T13:48:37.859Z,38.35
2017-11-07T13:49:43.827Z,33.67
2017-11-07T13:50:50.568Z,31.45
2017-11-07T13:51:56.711Z,27.52
2017-11-07T13:53:02.761Z,34.97
2017-11-07T13:54:08.778Z,36.28
2017-11-07T13:55:15.507Z,32.03
2017-11-07T13:56:21.405Z,29.95
2017-11-07T13:57:27.565Z,34.60
2017-11-07T13:58:33.350Z,29.55
2017-11-07T13:59:39.304Z,35.47
2017-11-07T14:00:45.136Z,32.15
2017-11-07T14:01:50.968Z,32.97
2017-11-07T14:02:56.753Z,32.50
2017-11-07T14:04:02.557Z,26.85
2017-11-07T14:05:08.400Z,30.45
2017-11-07T14:06:14.166Z,30.12
2017-11-07T14:07:21.000Z,29.27
2017-11-07T14:08:26.825Z,27.27
2017-11-07T14:09:32.831Z,30.12
2017-11-07T14:10:38.814Z,27.98
2017-11-07T14:11:44.615Z,30.55